sensor_id;sensor_type;location;lat;lon;timestamp;P1;durP1;ratioP1;P2;durP2;ratioP2
16436;SDS011;8328;52.206;21.006;2023-07-22T00:00:52;6.50;;;5.90;;
16436;SDS011;8328;52.206;21.006;2023-07-22T00:03:18;6.77;;;6.00;;
16436;SDS011;8328;52.206;21.006;2023-07-22T00:05:44;7.17;;;5.80;;
16436;SDS011;8328;52.206;21.006;2023-07-22T00:08:10;7.63;;;5.90;;
16436;SDS011;8328;52.206;21.006;2023-07-22T00:10:40;6.43;;;5.80;;
16436;SDS011;8328;52.206;21.006;2023-07-22T00:13:07;6.67;;;5.97;;
16436;SDS011;8328;52.206;21.006;2023-07-22T00:15:33;6.20;;;5.60;;
16436;SDS011;8328;52.206;21.006;2023-07-22T00:18:00;7.67;;;6.13;;
16436;SDS011;8328;52.206;21.006;2023-07-22T00:20:26;8.73;;;6.17;;
16436;SDS011;8328;52.206;21.006;2023-07-22T00:22:52;6.67;;;6.07;;
16436;SDS011;8328;52.206;21.006;2023-07-22T00:25:18;7.00;;;6.07;;
16436;SDS011;8328;52.206;21.006;2023-07-22T00:27:43;8.43;;;6.43;;
16436;SDS011;8328;52.206;21.006;2023-07-22T00:30:09;6.93;;;6.00;;
16436;SDS011;8328;52.206;21.006;2023-07-22T00:32:36;7.00;;;6.40;;
16436;SDS011;8328;52.206;21.006;2023-07-22T00:35:06;8.60;;;6.73;;
16436;SDS011;8328;52.206;21.006;2023-07-22T00:37:32;7.17;;;6.30;;
16436;SDS011;8328;52.206;21.006;2023-07-22T00:39:58;6.90;;;6.27;;
16436;SDS011;8328;52.206;21.006;2023-07-22T00:42:25;7.47;;;6.23;;
16436;SDS011;8328;52.206;21.006;2023-07-22T00:44:53;7.50;;;6.33;;
16436;SDS011;8328;52.206;21.006;2023-07-22T00:47:18;7.10;;;6.50;;
16436;SDS011;8328;52.206;21.006;2023-07-22T00:49:47;7.93;;;6.27;;
16436;SDS011;8328;52.206;21.006;2023-07-22T00:52:14;7.90;;;7.20;;
16436;SDS011;8328;52.206;21.006;2023-07-22T00:54:41;7.73;;;7.00;;
16436;SDS011;8328;52.206;21.006;2023-07-22T00:57:07;6.67;;;6.07;;
16436;SDS011;8328;52.206;21.006;2023-07-22T00:59:34;6.20;;;5.60;;
16436;SDS011;8328;52.206;21.006;2023-07-22T01:02:00;8.00;;;6.47;;
16436;SDS011;8328;52.206;21.006;2023-07-22T01:04:27;8.37;;;6.53;;
16436;SDS011;8328;52.206;21.006;2023-07-22T01:06:52;6.60;;;6.00;;
16436;SDS011;8328;52.206;21.006;2023-07-22T01:09:20;7.73;;;6.90;;
16436;SDS011;8328;52.206;21.006;2023-07-22T01:11:45;7.33;;;6.63;;
16436;SDS011;8328;52.206;21.006;2023-07-22T01:14:12;8.50;;;6.33;;
16436;SDS011;8328;52.206;21.006;2023-07-22T01:16:38;6.73;;;6.00;;
16436;SDS011;8328;52.206;21.006;2023-07-22T01:19:04;7.07;;;6.43;;
16436;SDS011;8328;52.206;21.006;2023-07-22T01:21:30;7.23;;;6.07;;
16436;SDS011;8328;52.206;21.006;2023-07-22T01:23:57;7.20;;;6.50;;
16436;SDS011;8328;52.206;21.006;2023-07-22T01:26:22;7.53;;;6.33;;
16436;SDS011;8328;52.206;21.006;2023-07-22T01:28:49;7.33;;;6.63;;
16436;SDS011;8328;52.206;21.006;2023-07-22T01:31:15;7.83;;;7.13;;
16436;SDS011;8328;52.206;21.006;2023-07-22T01:33:41;7.67;;;6.60;;
16436;SDS011;8328;52.206;21.006;2023-07-22T01:36:07;9.30;;;7.33;;
16436;SDS011;8328;52.206;21.006;2023-07-22T01:38:34;8.13;;;7.33;;
16436;SDS011;8328;52.206;21.006;2023-07-22T01:41:00;7.80;;;7.10;;
16436;SDS011;8328;52.206;21.006;2023-07-22T01:43:27;7.40;;;6.70;;
16436;SDS011;8328;52.206;21.006;2023-07-22T01:45:53;8.00;;;7.30;;
16436;SDS011;8328;52.206;21.006;2023-07-22T01:48:19;8.30;;;7.47;;
16436;SDS011;8328;52.206;21.006;2023-07-22T01:50:47;8.37;;;7.57;;
16436;SDS011;8328;52.206;21.006;2023-07-22T01:53:13;8.37;;;7.57;;
16436;SDS011;8328;52.206;21.006;2023-07-22T01:55:39;9.67;;;8.23;;
16436;SDS011;8328;52.206;21.006;2023-07-22T01:58:05;8.10;;;7.30;;
16436;SDS011;8328;52.206;21.006;2023-07-22T02:00:31;8.30;;;7.47;;
16436;SDS011;8328;52.206;21.006;2023-07-22T02:02:57;8.70;;;7.93;;
16436;SDS011;8328;52.206;21.006;2023-07-22T02:05:23;8.97;;;7.83;;
16436;SDS011;8328;52.206;21.006;2023-07-22T02:07:50;8.40;;;7.60;;
16436;SDS011;8328;52.206;21.006;2023-07-22T02:10:16;8.67;;;7.77;;
16436;SDS011;8328;52.206;21.006;2023-07-22T02:12:42;8.80;;;7.90;;
16436;SDS011;8328;52.206;21.006;2023-07-22T02:15:09;9.23;;;7.70;;
16436;SDS011;8328;52.206;21.006;2023-07-22T02:17:35;9.10;;;8.13;;
16436;SDS011;8328;52.206;21.006;2023-07-22T02:20:01;8.77;;;7.80;;
16436;SDS011;8328;52.206;21.006;2023-07-22T02:22:27;8.90;;;8.10;;
16436;SDS011;8328;52.206;21.006;2023-07-22T02:24:53;9.23;;;8.20;;
16436;SDS011;8328;52.206;21.006;2023-07-22T02:27:19;9.33;;;8.30;;
16436;SDS011;8328;52.206;21.006;2023-07-22T02:29:45;9.17;;;8.27;;
16436;SDS011;8328;52.206;21.006;2023-07-22T02:32:11;8.87;;;7.97;;
16436;SDS011;8328;52.206;21.006;2023-07-22T02:34:37;8.60;;;7.80;;
16436;SDS011;8328;52.206;21.006;2023-07-22T02:37:04;9.70;;;8.80;;
16436;SDS011;8328;52.206;21.006;2023-07-22T02:39:30;9.13;;;8.23;;
16436;SDS011;8328;52.206;21.006;2023-07-22T02:41:56;12.17;;;8.23;;
16436;SDS011;8328;52.206;21.006;2023-07-22T02:44:22;9.10;;;7.93;;
16436;SDS011;8328;52.206;21.006;2023-07-22T02:46:48;9.07;;;8.07;;
16436;SDS011;8328;52.206;21.006;2023-07-22T02:49:14;9.70;;;8.47;;
16436;SDS011;8328;52.206;21.006;2023-07-22T02:51:40;11.60;;;8.83;;
16436;SDS011;8328;52.206;21.006;2023-07-22T02:54:05;9.73;;;8.17;;
16436;SDS011;8328;52.206;21.006;2023-07-22T02:56:31;9.60;;;8.60;;
16436;SDS011;8328;52.206;21.006;2023-07-22T02:58:57;9.47;;;8.57;;
16436;SDS011;8328;52.206;21.006;2023-07-22T03:01:23;9.13;;;8.23;;
16436;SDS011;8328;52.206;21.006;2023-07-22T03:03:51;8.97;;;8.07;;
16436;SDS011;8328;52.206;21.006;2023-07-22T03:06:17;10.77;;;8.50;;
16436;SDS011;8328;52.206;21.006;2023-07-22T03:08:43;9.80;;;8.87;;
16436;SDS011;8328;52.206;21.006;2023-07-22T03:11:09;9.60;;;8.57;;
16436;SDS011;8328;52.206;21.006;2023-07-22T03:13:35;8.63;;;7.73;;
16436;SDS011;8328;52.206;21.006;2023-07-22T03:16:01;10.90;;;9.63;;
16436;SDS011;8328;52.206;21.006;2023-07-22T03:18:30;9.87;;;8.67;;
16436;SDS011;8328;52.206;21.006;2023-07-22T03:20:57;10.60;;;9.60;;
16436;SDS011;8328;52.206;21.006;2023-07-22T03:23:23;10.67;;;9.67;;
16436;SDS011;8328;52.206;21.006;2023-07-22T03:25:49;10.97;;;9.87;;
16436;SDS011;8328;52.206;21.006;2023-07-22T03:28:15;10.93;;;9.83;;
16436;SDS011;8328;52.206;21.006;2023-07-22T03:30:41;11.47;;;10.30;;
16436;SDS011;8328;52.206;21.006;2023-07-22T03:33:07;11.97;;;10.77;;
16436;SDS011;8328;52.206;21.006;2023-07-22T03:35:33;10.87;;;9.80;;
16436;SDS011;8328;52.206;21.006;2023-07-22T03:37:59;11.10;;;10.00;;
16436;SDS011;8328;52.206;21.006;2023-07-22T03:40:25;11.70;;;10.33;;
16436;SDS011;8328;52.206;21.006;2023-07-22T03:42:57;10.13;;;9.20;;
16436;SDS011;8328;52.206;21.006;2023-07-22T03:45:23;11.03;;;9.53;;
16436;SDS011;8328;52.206;21.006;2023-07-22T03:47:53;10.93;;;9.83;;
16436;SDS011;8328;52.206;21.006;2023-07-22T03:50:21;11.07;;;9.97;;
16436;SDS011;8328;52.206;21.006;2023-07-22T03:52:48;10.40;;;9.50;;
16436;SDS011;8328;52.206;21.006;2023-07-22T03:55:14;10.37;;;9.27;;
16436;SDS011;8328;52.206;21.006;2023-07-22T03:57:40;9.90;;;8.90;;
16436;SDS011;8328;52.206;21.006;2023-07-22T04:00:06;9.93;;;8.93;;
16436;SDS011;8328;52.206;21.006;2023-07-22T04:02:35;10.50;;;9.50;;
16436;SDS011;8328;52.206;21.006;2023-07-22T04:05:02;9.90;;;8.93;;
16436;SDS011;8328;52.206;21.006;2023-07-22T04:07:29;9.53;;;8.60;;
16436;SDS011;8328;52.206;21.006;2023-07-22T04:09:54;9.60;;;8.47;;
16436;SDS011;8328;52.206;21.006;2023-07-22T04:12:20;9.63;;;8.73;;
16436;SDS011;8328;52.206;21.006;2023-07-22T04:14:46;8.73;;;7.93;;
16436;SDS011;8328;52.206;21.006;2023-07-22T04:17:12;9.20;;;8.20;;
16436;SDS011;8328;52.206;21.006;2023-07-22T04:19:40;8.73;;;7.60;;
16436;SDS011;8328;52.206;21.006;2023-07-22T04:22:08;9.80;;;8.80;;
16436;SDS011;8328;52.206;21.006;2023-07-22T04:24:33;9.30;;;8.40;;
16436;SDS011;8328;52.206;21.006;2023-07-22T04:27:00;8.83;;;8.03;;
16436;SDS011;8328;52.206;21.006;2023-07-22T04:29:26;9.13;;;8.23;;
16436;SDS011;8328;52.206;21.006;2023-07-22T04:31:56;9.73;;;7.60;;
16436;SDS011;8328;52.206;21.006;2023-07-22T04:34:31;8.37;;;7.53;;
16436;SDS011;8328;52.206;21.006;2023-07-22T04:36:57;8.80;;;7.90;;
16436;SDS011;8328;52.206;21.006;2023-07-22T04:39:24;7.53;;;6.93;;
16436;SDS011;8328;52.206;21.006;2023-07-22T04:41:50;8.73;;;7.83;;
16436;SDS011;8328;52.206;21.006;2023-07-22T04:44:17;8.53;;;7.73;;
16436;SDS011;8328;52.206;21.006;2023-07-22T04:46:44;8.67;;;7.87;;
16436;SDS011;8328;52.206;21.006;2023-07-22T04:49:10;9.60;;;6.90;;
16436;SDS011;8328;52.206;21.006;2023-07-22T04:51:36;7.90;;;7.20;;
16436;SDS011;8328;52.206;21.006;2023-07-22T04:54:02;7.67;;;6.97;;
16436;SDS011;8328;52.206;21.006;2023-07-22T04:56:29;9.97;;;7.23;;
16436;SDS011;8328;52.206;21.006;2023-07-22T04:58:55;8.53;;;7.57;;
16436;SDS011;8328;52.206;21.006;2023-07-22T05:01:21;8.40;;;7.53;;
16436;SDS011;8328;52.206;21.006;2023-07-22T05:03:47;7.50;;;6.80;;
16436;SDS011;8328;52.206;21.006;2023-07-22T05:06:13;7.60;;;6.90;;
16436;SDS011;8328;52.206;21.006;2023-07-22T05:08:40;7.50;;;6.70;;
16436;SDS011;8328;52.206;21.006;2023-07-22T05:11:07;7.27;;;6.57;;
16436;SDS011;8328;52.206;21.006;2023-07-22T05:13:33;7.23;;;6.33;;
16436;SDS011;8328;52.206;21.006;2023-07-22T05:15:59;6.90;;;6.20;;
16436;SDS011;8328;52.206;21.006;2023-07-22T05:18:25;8.07;;;7.27;;
16436;SDS011;8328;52.206;21.006;2023-07-22T05:20:51;6.80;;;6.13;;
16436;SDS011;8328;52.206;21.006;2023-07-22T05:23:17;7.93;;;7.17;;
16436;SDS011;8328;52.206;21.006;2023-07-22T05:25:43;7.97;;;7.13;;
16436;SDS011;8328;52.206;21.006;2023-07-22T05:28:09;7.53;;;6.83;;
16436;SDS011;8328;52.206;21.006;2023-07-22T05:30:35;8.37;;;7.50;;
16436;SDS011;8328;52.206;21.006;2023-07-22T05:33:02;8.07;;;7.17;;
16436;SDS011;8328;52.206;21.006;2023-07-22T05:35:28;7.90;;;7.10;;
16436;SDS011;8328;52.206;21.006;2023-07-22T05:37:54;7.80;;;7.10;;
16436;SDS011;8328;52.206;21.006;2023-07-22T05:40:20;9.07;;;7.80;;
16436;SDS011;8328;52.206;21.006;2023-07-22T05:42:46;10.67;;;7.97;;
16436;SDS011;8328;52.206;21.006;2023-07-22T05:45:13;8.87;;;7.67;;
16436;SDS011;8328;52.206;21.006;2023-07-22T05:47:40;8.23;;;7.43;;
16436;SDS011;8328;52.206;21.006;2023-07-22T05:50:07;8.73;;;7.67;;
16436;SDS011;8328;52.206;21.006;2023-07-22T05:52:33;9.10;;;7.50;;
16436;SDS011;8328;52.206;21.006;2023-07-22T05:54:59;7.90;;;7.10;;
16436;SDS011;8328;52.206;21.006;2023-07-22T05:57:25;10.03;;;8.00;;
16436;SDS011;8328;52.206;21.006;2023-07-22T05:59:51;8.60;;;7.70;;
16436;SDS011;8328;52.206;21.006;2023-07-22T06:02:18;8.40;;;6.63;;
16436;SDS011;8328;52.206;21.006;2023-07-22T06:04:44;8.47;;;6.90;;
16436;SDS011;8328;52.206;21.006;2023-07-22T06:07:10;8.00;;;6.97;;
16436;SDS011;8328;52.206;21.006;2023-07-22T06:09:36;7.53;;;6.37;;
16436;SDS011;8328;52.206;21.006;2023-07-22T06:12:03;7.80;;;6.10;;
16436;SDS011;8328;52.206;21.006;2023-07-22T06:14:29;6.97;;;6.33;;
16436;SDS011;8328;52.206;21.006;2023-07-22T06:16:55;6.57;;;5.93;;
16436;SDS011;8328;52.206;21.006;2023-07-22T06:19:21;7.10;;;5.53;;
16436;SDS011;8328;52.206;21.006;2023-07-22T06:21:49;7.07;;;6.40;;
16436;SDS011;8328;52.206;21.006;2023-07-22T06:24:15;6.63;;;6.03;;
16436;SDS011;8328;52.206;21.006;2023-07-22T06:26:41;8.40;;;6.13;;
16436;SDS011;8328;52.206;21.006;2023-07-22T06:29:07;6.97;;;6.23;;
16436;SDS011;8328;52.206;21.006;2023-07-22T06:31:33;9.57;;;6.40;;
16436;SDS011;8328;52.206;21.006;2023-07-22T06:33:59;6.80;;;6.20;;
16436;SDS011;8328;52.206;21.006;2023-07-22T06:36:26;7.53;;;6.10;;
16436;SDS011;8328;52.206;21.006;2023-07-22T06:38:52;6.13;;;5.53;;
16436;SDS011;8328;52.206;21.006;2023-07-22T06:41:18;6.07;;;5.43;;
16436;SDS011;8328;52.206;21.006;2023-07-22T06:43:44;6.33;;;5.73;;
16436;SDS011;8328;52.206;21.006;2023-07-22T06:46:10;5.60;;;5.10;;
16436;SDS011;8328;52.206;21.006;2023-07-22T06:48:36;7.33;;;4.83;;
16436;SDS011;8328;52.206;21.006;2023-07-22T06:51:02;5.43;;;4.87;;
16436;SDS011;8328;52.206;21.006;2023-07-22T06:53:30;6.30;;;4.30;;
16436;SDS011;8328;52.206;21.006;2023-07-22T06:55:56;6.37;;;3.80;;
16436;SDS011;8328;52.206;21.006;2023-07-22T06:58:22;4.70;;;4.20;;
16436;SDS011;8328;52.206;21.006;2023-07-22T07:00:52;6.47;;;4.07;;
16436;SDS011;8328;52.206;21.006;2023-07-22T07:03:19;3.40;;;3.10;;
16436;SDS011;8328;52.206;21.006;2023-07-22T07:05:55;5.13;;;3.53;;
16436;SDS011;8328;52.206;21.006;2023-07-22T07:08:22;4.30;;;3.03;;
16436;SDS011;8328;52.206;21.006;2023-07-22T07:10:49;4.27;;;2.70;;
16436;SDS011;8328;52.206;21.006;2023-07-22T07:13:16;3.67;;;3.30;;
16436;SDS011;8328;52.206;21.006;2023-07-22T07:15:45;3.57;;;3.20;;
16436;SDS011;8328;52.206;21.006;2023-07-22T07:18:13;3.27;;;3.00;;
16436;SDS011;8328;52.206;21.006;2023-07-22T07:20:40;5.17;;;3.43;;
16436;SDS011;8328;52.206;21.006;2023-07-22T07:23:06;6.70;;;4.97;;
16436;SDS011;8328;52.206;21.006;2023-07-22T07:25:32;3.30;;;2.93;;
16436;SDS011;8328;52.206;21.006;2023-07-22T07:27:58;4.10;;;3.17;;
16436;SDS011;8328;52.206;21.006;2023-07-22T07:30:24;3.93;;;3.20;;
16436;SDS011;8328;52.206;21.006;2023-07-22T07:32:50;4.60;;;3.47;;
16436;SDS011;8328;52.206;21.006;2023-07-22T07:35:16;4.97;;;2.80;;
16436;SDS011;8328;52.206;21.006;2023-07-22T07:37:42;4.33;;;2.80;;
16436;SDS011;8328;52.206;21.006;2023-07-22T07:40:08;3.40;;;2.97;;
16436;SDS011;8328;52.206;21.006;2023-07-22T07:42:34;3.50;;;3.20;;
16436;SDS011;8328;52.206;21.006;2023-07-22T07:45:03;3.37;;;2.73;;
16436;SDS011;8328;52.206;21.006;2023-07-22T07:47:29;4.37;;;3.30;;
16436;SDS011;8328;52.206;21.006;2023-07-22T07:49:56;8.57;;;3.33;;
16436;SDS011;8328;52.206;21.006;2023-07-22T07:52:22;4.10;;;2.37;;
16436;SDS011;8328;52.206;21.006;2023-07-22T07:54:48;3.70;;;2.73;;
16436;SDS011;8328;52.206;21.006;2023-07-22T07:57:14;3.47;;;2.70;;
16436;SDS011;8328;52.206;21.006;2023-07-22T07:59:40;3.60;;;2.50;;
16436;SDS011;8328;52.206;21.006;2023-07-22T08:02:07;3.30;;;2.40;;
16436;SDS011;8328;52.206;21.006;2023-07-22T08:04:34;3.97;;;2.30;;
16436;SDS011;8328;52.206;21.006;2023-07-22T08:07:00;2.40;;;2.20;;
16436;SDS011;8328;52.206;21.006;2023-07-22T08:09:29;2.73;;;2.00;;
16436;SDS011;8328;52.206;21.006;2023-07-22T08:11:55;2.63;;;2.30;;
16436;SDS011;8328;52.206;21.006;2023-07-22T08:14:21;3.47;;;2.50;;
16436;SDS011;8328;52.206;21.006;2023-07-22T08:16:49;2.60;;;2.33;;
16436;SDS011;8328;52.206;21.006;2023-07-22T08:19:15;4.77;;;2.53;;
16436;SDS011;8328;52.206;21.006;2023-07-22T08:21:41;3.57;;;2.13;;
16436;SDS011;8328;52.206;21.006;2023-07-22T08:24:07;3.87;;;2.27;;
16436;SDS011;8328;52.206;21.006;2023-07-22T08:26:33;3.67;;;2.60;;
16436;SDS011;8328;52.206;21.006;2023-07-22T08:29:00;3.17;;;2.27;;
16436;SDS011;8328;52.206;21.006;2023-07-22T08:31:25;3.90;;;1.77;;
16436;SDS011;8328;52.206;21.006;2023-07-22T08:33:51;4.73;;;2.87;;
16436;SDS011;8328;52.206;21.006;2023-07-22T08:36:17;5.37;;;2.20;;
16436;SDS011;8328;52.206;21.006;2023-07-22T08:38:43;2.70;;;2.03;;
16436;SDS011;8328;52.206;21.006;2023-07-22T08:41:13;3.70;;;1.90;;
16436;SDS011;8328;52.206;21.006;2023-07-22T08:43:41;3.73;;;2.13;;
16436;SDS011;8328;52.206;21.006;2023-07-22T08:46:07;2.90;;;1.60;;
16436;SDS011;8328;52.206;21.006;2023-07-22T08:48:35;2.60;;;1.97;;
16436;SDS011;8328;52.206;21.006;2023-07-22T08:51:04;3.80;;;2.57;;
16436;SDS011;8328;52.206;21.006;2023-07-22T08:53:35;3.03;;;1.90;;
16436;SDS011;8328;52.206;21.006;2023-07-22T08:56:02;3.37;;;1.67;;
16436;SDS011;8328;52.206;21.006;2023-07-22T08:58:28;3.17;;;1.80;;
16436;SDS011;8328;52.206;21.006;2023-07-22T09:00:55;3.17;;;1.77;;
16436;SDS011;8328;52.206;21.006;2023-07-22T09:03:21;2.23;;;2.00;;
16436;SDS011;8328;52.206;21.006;2023-07-22T09:05:48;2.90;;;1.80;;
16436;SDS011;8328;52.206;21.006;2023-07-22T09:08:14;2.03;;;1.53;;
16436;SDS011;8328;52.206;21.006;2023-07-22T09:10:40;3.40;;;1.50;;
16436;SDS011;8328;52.206;21.006;2023-07-22T09:13:06;2.27;;;1.83;;
16436;SDS011;8328;52.206;21.006;2023-07-22T09:15:35;2.87;;;1.60;;
16436;SDS011;8328;52.206;21.006;2023-07-22T09:18:02;2.00;;;1.70;;
16436;SDS011;8328;52.206;21.006;2023-07-22T09:20:29;2.53;;;1.70;;
16436;SDS011;8328;52.206;21.006;2023-07-22T09:22:55;3.30;;;2.00;;
16436;SDS011;8328;52.206;21.006;2023-07-22T09:25:23;2.07;;;1.70;;
16436;SDS011;8328;52.206;21.006;2023-07-22T09:27:51;2.83;;;1.90;;
16436;SDS011;8328;52.206;21.006;2023-07-22T09:30:24;4.00;;;2.00;;
16436;SDS011;8328;52.206;21.006;2023-07-22T09:32:50;2.50;;;2.07;;
16436;SDS011;8328;52.206;21.006;2023-07-22T09:35:21;4.37;;;2.10;;
16436;SDS011;8328;52.206;21.006;2023-07-22T09:37:48;2.77;;;2.30;;
16436;SDS011;8328;52.206;21.006;2023-07-22T09:40:18;4.17;;;2.70;;
16436;SDS011;8328;52.206;21.006;2023-07-22T09:42:45;2.70;;;1.90;;
16436;SDS011;8328;52.206;21.006;2023-07-22T09:45:12;3.80;;;3.07;;
16436;SDS011;8328;52.206;21.006;2023-07-22T09:47:41;2.10;;;1.97;;
16436;SDS011;8328;52.206;21.006;2023-07-22T09:50:16;2.43;;;1.93;;
16436;SDS011;8328;52.206;21.006;2023-07-22T09:52:44;2.60;;;2.00;;
16436;SDS011;8328;52.206;21.006;2023-07-22T09:55:12;2.20;;;1.73;;
16436;SDS011;8328;52.206;21.006;2023-07-22T09:57:40;2.17;;;1.83;;
16436;SDS011;8328;52.206;21.006;2023-07-22T10:00:11;2.20;;;2.00;;
16436;SDS011;8328;52.206;21.006;2023-07-22T10:02:40;2.13;;;1.93;;
16436;SDS011;8328;52.206;21.006;2023-07-22T10:05:10;2.70;;;1.80;;
16436;SDS011;8328;52.206;21.006;2023-07-22T10:07:51;3.87;;;1.57;;
16436;SDS011;8328;52.206;21.006;2023-07-22T10:10:32;3.63;;;2.07;;
16436;SDS011;8328;52.206;21.006;2023-07-22T10:13:00;2.43;;;1.70;;
16436;SDS011;8328;52.206;21.006;2023-07-22T10:15:28;1.50;;;1.40;;
16436;SDS011;8328;52.206;21.006;2023-07-22T10:17:55;2.60;;;1.50;;
16436;SDS011;8328;52.206;21.006;2023-07-22T10:20:23;2.63;;;1.43;;
16436;SDS011;8328;52.206;21.006;2023-07-22T10:22:49;3.33;;;1.30;;
16436;SDS011;8328;52.206;21.006;2023-07-22T10:25:20;1.50;;;1.30;;
16436;SDS011;8328;52.206;21.006;2023-07-22T10:27:47;1.70;;;1.50;;
16436;SDS011;8328;52.206;21.006;2023-07-22T10:30:15;2.90;;;1.57;;
16436;SDS011;8328;52.206;21.006;2023-07-22T10:32:42;1.70;;;1.33;;
16436;SDS011;8328;52.206;21.006;2023-07-22T10:35:17;2.77;;;1.60;;
16436;SDS011;8328;52.206;21.006;2023-07-22T10:37:55;2.23;;;1.40;;
16436;SDS011;8328;52.206;21.006;2023-07-22T10:40:25;2.07;;;1.43;;
16436;SDS011;8328;52.206;21.006;2023-07-22T10:45:24;2.67;;;1.50;;
16436;SDS011;8328;52.206;21.006;2023-07-22T10:48:00;2.03;;;1.67;;
16436;SDS011;8328;52.206;21.006;2023-07-22T10:53:09;1.40;;;1.30;;
16436;SDS011;8328;52.206;21.006;2023-07-22T11:01:21;2.23;;;1.50;;
16436;SDS011;8328;52.206;21.006;2023-07-22T11:14:24;1.90;;;1.30;;
16436;SDS011;8328;52.206;21.006;2023-07-22T11:16:58;1.60;;;1.37;;
16436;SDS011;8328;52.206;21.006;2023-07-22T11:19:26;2.83;;;1.30;;
16436;SDS011;8328;52.206;21.006;2023-07-22T11:21:52;2.40;;;1.10;;
16436;SDS011;8328;52.206;21.006;2023-07-22T11:24:19;2.07;;;1.37;;
16436;SDS011;8328;52.206;21.006;2023-07-22T11:26:47;1.30;;;1.20;;
16436;SDS011;8328;52.206;21.006;2023-07-22T11:29:14;3.30;;;1.60;;
16436;SDS011;8328;52.206;21.006;2023-07-22T11:31:41;1.33;;;1.20;;
16436;SDS011;8328;52.206;21.006;2023-07-22T11:34:09;2.70;;;1.57;;
16436;SDS011;8328;52.206;21.006;2023-07-22T11:36:35;1.27;;;1.17;;
16436;SDS011;8328;52.206;21.006;2023-07-22T11:39:09;2.33;;;1.50;;
16436;SDS011;8328;52.206;21.006;2023-07-22T11:41:37;3.10;;;1.60;;
16436;SDS011;8328;52.206;21.006;2023-07-22T11:44:03;1.90;;;1.70;;
16436;SDS011;8328;52.206;21.006;2023-07-22T11:51:56;1.87;;;1.50;;
16436;SDS011;8328;52.206;21.006;2023-07-22T11:54:27;3.33;;;1.30;;
16436;SDS011;8328;52.206;21.006;2023-07-22T11:57:08;3.23;;;1.40;;
16436;SDS011;8328;52.206;21.006;2023-07-22T11:59:39;1.47;;;1.37;;
16436;SDS011;8328;52.206;21.006;2023-07-22T12:02:12;3.30;;;1.63;;
16436;SDS011;8328;52.206;21.006;2023-07-22T12:04:42;1.53;;;1.40;;
16436;SDS011;8328;52.206;21.006;2023-07-22T12:07:24;3.47;;;1.50;;
16436;SDS011;8328;52.206;21.006;2023-07-22T12:09:54;2.63;;;1.43;;
16436;SDS011;8328;52.206;21.006;2023-07-22T12:12:30;4.13;;;1.47;;
16436;SDS011;8328;52.206;21.006;2023-07-22T12:15:04;1.90;;;1.50;;
16436;SDS011;8328;52.206;21.006;2023-07-22T12:17:58;3.93;;;1.73;;
16436;SDS011;8328;52.206;21.006;2023-07-22T12:20:26;1.67;;;1.50;;
16436;SDS011;8328;52.206;21.006;2023-07-22T12:22:55;3.00;;;1.90;;
16436;SDS011;8328;52.206;21.006;2023-07-22T12:25:22;1.40;;;1.30;;
16436;SDS011;8328;52.206;21.006;2023-07-22T12:27:48;1.93;;;1.77;;
16436;SDS011;8328;52.206;21.006;2023-07-22T12:30:15;3.50;;;1.70;;
16436;SDS011;8328;52.206;21.006;2023-07-22T12:32:41;2.00;;;1.70;;
16436;SDS011;8328;52.206;21.006;2023-07-22T12:35:07;1.97;;;1.50;;
16436;SDS011;8328;52.206;21.006;2023-07-22T12:37:34;1.93;;;1.43;;
16436;SDS011;8328;52.206;21.006;2023-07-22T12:40:00;2.70;;;1.60;;
16436;SDS011;8328;52.206;21.006;2023-07-22T12:42:26;2.13;;;1.50;;
16436;SDS011;8328;52.206;21.006;2023-07-22T12:44:52;1.70;;;1.60;;
16436;SDS011;8328;52.206;21.006;2023-07-22T12:47:18;1.63;;;1.53;;
16436;SDS011;8328;52.206;21.006;2023-07-22T12:49:45;3.17;;;1.40;;
16436;SDS011;8328;52.206;21.006;2023-07-22T12:52:11;1.80;;;1.60;;
16436;SDS011;8328;52.206;21.006;2023-07-22T12:54:40;2.67;;;1.87;;
16436;SDS011;8328;52.206;21.006;2023-07-22T12:57:07;1.70;;;1.60;;
16436;SDS011;8328;52.206;21.006;2023-07-22T12:59:32;2.70;;;1.50;;
16436;SDS011;8328;52.206;21.006;2023-07-22T13:01:59;1.63;;;1.50;;
16436;SDS011;8328;52.206;21.006;2023-07-22T13:04:25;2.03;;;1.83;;
16436;SDS011;8328;52.206;21.006;2023-07-22T13:06:51;1.70;;;1.60;;
16436;SDS011;8328;52.206;21.006;2023-07-22T13:09:17;2.93;;;1.60;;
16436;SDS011;8328;52.206;21.006;2023-07-22T13:11:43;1.47;;;1.37;;
16436;SDS011;8328;52.206;21.006;2023-07-22T13:14:09;1.60;;;1.50;;
16436;SDS011;8328;52.206;21.006;2023-07-22T13:16:35;1.90;;;1.50;;
16436;SDS011;8328;52.206;21.006;2023-07-22T13:19:01;1.60;;;1.50;;
16436;SDS011;8328;52.206;21.006;2023-07-22T13:21:28;2.43;;;1.37;;
16436;SDS011;8328;52.206;21.006;2023-07-22T13:23:54;1.80;;;1.70;;
16436;SDS011;8328;52.206;21.006;2023-07-22T13:26:20;1.60;;;1.40;;
16436;SDS011;8328;52.206;21.006;2023-07-22T13:28:46;2.97;;;1.50;;
16436;SDS011;8328;52.206;21.006;2023-07-22T13:31:12;2.30;;;1.50;;
16436;SDS011;8328;52.206;21.006;2023-07-22T13:33:38;2.90;;;1.60;;
16436;SDS011;8328;52.206;21.006;2023-07-22T13:36:05;2.43;;;1.87;;
16436;SDS011;8328;52.206;21.006;2023-07-22T13:38:31;5.43;;;1.40;;
16436;SDS011;8328;52.206;21.006;2023-07-22T13:40:57;1.50;;;1.40;;
16436;SDS011;8328;52.206;21.006;2023-07-22T13:43:23;2.20;;;1.50;;
16436;SDS011;8328;52.206;21.006;2023-07-22T13:45:50;2.37;;;1.80;;
16436;SDS011;8328;52.206;21.006;2023-07-22T13:48:16;2.17;;;1.65;;
16436;SDS011;8328;52.206;21.006;2023-07-22T13:50:42;1.73;;;1.55;;
16436;SDS011;8328;52.206;21.006;2023-07-22T13:53:08;1.52;;;1.42;;
16436;SDS011;8328;52.206;21.006;2023-07-22T13:55:34;2.10;;;1.43;;
16436;SDS011;8328;52.206;21.006;2023-07-22T13:58:01;1.50;;;1.40;;
16436;SDS011;8328;52.206;21.006;2023-07-22T14:00:26;2.33;;;1.40;;
16436;SDS011;8328;52.206;21.006;2023-07-22T14:02:53;4.50;;;1.70;;
16436;SDS011;8328;52.206;21.006;2023-07-22T14:05:20;1.60;;;1.40;;
16436;SDS011;8328;52.206;21.006;2023-07-22T14:07:46;1.70;;;1.60;;
16436;SDS011;8328;52.206;21.006;2023-07-22T14:10:11;3.03;;;1.60;;
16436;SDS011;8328;52.206;21.006;2023-07-22T14:12:37;2.67;;;1.87;;
16436;SDS011;8328;52.206;21.006;2023-07-22T14:15:03;2.87;;;1.70;;
16436;SDS011;8328;52.206;21.006;2023-07-22T14:17:30;2.20;;;1.60;;
16436;SDS011;8328;52.206;21.006;2023-07-22T14:19:59;2.88;;;1.85;;
16436;SDS011;8328;52.206;21.006;2023-07-22T14:22:24;1.80;;;1.63;;
16436;SDS011;8328;52.206;21.006;2023-07-22T14:24:50;3.28;;;1.52;;
16436;SDS011;8328;52.206;21.006;2023-07-22T14:27:16;1.70;;;1.60;;
16436;SDS011;8328;52.206;21.006;2023-07-22T14:29:42;2.08;;;1.90;;
16436;SDS011;8328;52.206;21.006;2023-07-22T14:32:09;1.77;;;1.52;;
16436;SDS011;8328;52.206;21.006;2023-07-22T14:34:34;2.00;;;1.67;;
16436;SDS011;8328;52.206;21.006;2023-07-22T14:37:00;3.03;;;1.63;;
16436;SDS011;8328;52.206;21.006;2023-07-22T14:39:28;2.13;;;1.60;;
16436;SDS011;8328;52.206;21.006;2023-07-22T14:41:54;2.08;;;1.88;;
16436;SDS011;8328;52.206;21.006;2023-07-22T14:44:20;1.80;;;1.70;;
16436;SDS011;8328;52.206;21.006;2023-07-22T14:46:47;3.30;;;1.70;;
16436;SDS011;8328;52.206;21.006;2023-07-22T14:49:13;2.47;;;1.95;;
16436;SDS011;8328;52.206;21.006;2023-07-22T14:51:39;4.28;;;1.70;;
16436;SDS011;8328;52.206;21.006;2023-07-22T14:54:05;2.10;;;1.60;;
16436;SDS011;8328;52.206;21.006;2023-07-22T14:56:31;4.70;;;1.90;;
16436;SDS011;8328;52.206;21.006;2023-07-22T14:58:57;2.78;;;2.30;;
16436;SDS011;8328;52.206;21.006;2023-07-22T15:01:23;3.75;;;1.60;;
16436;SDS011;8328;52.206;21.006;2023-07-22T15:03:50;2.83;;;1.50;;
16436;SDS011;8328;52.206;21.006;2023-07-22T15:06:18;2.40;;;1.53;;
16436;SDS011;8328;52.206;21.006;2023-07-22T15:08:43;5.40;;;1.97;;
16436;SDS011;8328;52.206;21.006;2023-07-22T15:11:09;2.03;;;1.50;;